createdAt,value
2017-02-26T00:01:03.807Z,49.34
2017-02-26T00:02:56.199Z,49.36
2017-02-26T00:05:03.413Z,49.39
2017-02-26T00:07:05.679Z,49.4
2017-02-26T00:09:07.945Z,49.4
2017-02-26T00:11:10.206Z,49.33
2017-02-26T00:13:17.535Z,49.3
2017-02-26T00:15:09.838Z,49.26
2017-02-26T00:17:12.260Z,49.21
2017-02-26T00:19:19.703Z,49.18
2017-02-26T00:21:17.215Z,49.13
2017-02-26T00:23:19.637Z,49.08
2017-02-26T00:25:16.933Z,49.08
2017-02-26T00:27:24.277Z,49.06
2017-02-26T00:29:31.896Z,49.05
2017-02-26T00:31:34.113Z,49.04
2017-02-26T00:33:31.409Z,49.05
2017-02-26T00:35:18.709Z,49.04
2017-02-26T00:37:20.989Z,49
2017-02-26T00:39:33.170Z,49
2017-02-26T00:41:35.355Z,49
2017-02-26T00:43:32.574Z,49.02
2017-02-26T00:45:14.885Z,49.05
2017-02-26T00:47:22.315Z,49.06
2017-02-26T00:49:29.465Z,49.08
2017-02-26T00:51:21.947Z,49.13
2017-02-26T00:53:34.205Z,49.14
2017-02-26T00:55:36.556Z,49.13
2017-02-26T00:57:43.771Z,49.12
2017-02-26T00:59:40.983Z,49.11
2017-02-26T01:01:43.295Z,49.12
2017-02-26T01:03:45.623Z,49.17
2017-02-26T01:05:47.842Z,49.17
2017-02-26T01:07:50.047Z,49.19
2017-02-26T01:09:57.420Z,49.19
2017-02-26T01:11:59.592Z,49.19
2017-02-26T01:13:56.892Z,49.2
2017-02-26T01:16:04.046Z,49.21
2017-02-26T01:18:11.213Z,49.22
2017-02-26T01:20:03.448Z,49.21
2017-02-26T01:22:15.721Z,49.21
2017-02-26T01:24:18.084Z,49.21
2017-02-26T01:26:20.305Z,49.2
2017-02-26T01:28:22.706Z,49.19
2017-02-26T01:30:29.953Z,49.19
2017-02-26T01:32:22.364Z,49.2
2017-02-26T01:34:19.751Z,49.21
2017-02-26T01:36:26.946Z,49.21
2017-02-26T01:38:34.123Z,49.22
2017-02-26T01:40:41.255Z,49.24
2017-02-26T01:42:43.469Z,49.25
2017-02-26T01:44:50.718Z,49.22
2017-02-26T01:46:42.957Z,49.2
2017-02-26T01:48:45.132Z,49.19
2017-02-26T01:50:47.375Z,49.2
2017-02-26T01:52:39.747Z,49.23
2017-02-26T01:54:41.983Z,49.26
2017-02-26T01:56:39.356Z,49.29
2017-02-26T01:58:41.742Z,49.31
2017-02-26T02:00:43.997Z,49.33
2017-02-26T02:02:36.287Z,49.34
2017-02-26T02:04:38.594Z,49.34
2017-02-26T02:06:35.806Z,49.35
2017-02-26T02:08:38.079Z,49.36
2017-02-26T02:10:40.661Z,49.36
2017-02-26T02:12:43.006Z,49.35
2017-02-26T02:14:40.233Z,49.34
2017-02-26T02:16:32.610Z,49.34
2017-02-26T02:18:38.118Z,49.32
2017-02-26T02:20:35.327Z,49.31
2017-02-26T02:22:42.583Z,49.3
2017-02-26T02:24:44.965Z,49.3
2017-02-26T02:26:47.388Z,49.29
2017-02-26T02:28:49.847Z,49.27
2017-02-26T02:30:52.074Z,49.24
2017-02-26T02:32:44.339Z,49.24
2017-02-26T02:34:46.637Z,49.22
2017-02-26T02:36:43.841Z,49.21
2017-02-26T02:38:41.041Z,49.19
2017-02-26T02:40:33.475Z,49.19
2017-02-26T02:42:40.645Z,49.2
2017-02-26T02:44:43.162Z,49.19
2017-02-26T02:46:45.343Z,49.2
2017-02-26T02:48:42.734Z,49.2
2017-02-26T02:50:50.154Z,49.18
2017-02-26T02:52:52.415Z,49.17
2017-02-26T02:54:54.618Z,49.17
2017-02-26T02:56:51.864Z,49.16
2017-02-26T02:58:59.105Z,49.14
2017-02-26T03:01:06.393Z,49.13
2017-02-26T03:03:03.727Z,49.13
2017-02-26T03:04:56.073Z,49.14
2017-02-26T03:06:58.584Z,49.18
2017-02-26T03:08:59.134Z,49.19
2017-02-26T03:11:01.470Z,49.2
2017-02-26T03:13:05.373Z,49.22
2017-02-26T03:15:07.622Z,49.23
2017-02-26T03:17:09.849Z,49.24
2017-02-26T03:19:02.376Z,49.24
2017-02-26T03:21:09.817Z,49.25
2017-02-26T03:23:17.148Z,49.27
2017-02-26T03:25:24.497Z,49.28
2017-02-26T03:27:26.840Z,49.31
2017-02-26T03:29:14.238Z,49.3
2017-02-26T03:31:06.460Z,49.3
2017-02-26T03:33:08.676Z,49.31
2017-02-26T03:35:01.094Z,49.33
2017-02-26T03:36:53.458Z,49.35
2017-02-26T03:38:45.706Z,49.38
2017-02-26T03:40:38.157Z,49.41
2017-02-26T03:42:40.372Z,49.45
2017-02-26T03:44:42.639Z,49.44
2017-02-26T03:46:39.887Z,49.44
2017-02-26T03:48:32.073Z,49.47
2017-02-26T03:50:39.389Z,49.44
2017-02-26T03:52:35.154Z,49.46
2017-02-26T03:54:27.621Z,49.46
2017-02-26T03:56:25.059Z,49.49
2017-02-26T03:58:27.290Z,49.53
2017-02-26T04:00:24.661Z,49.56
2017-02-26T04:02:16.862Z,49.57
2017-02-26T04:04:09.112Z,49.57
2017-02-26T04:06:06.426Z,49.58
2017-02-26T04:08:13.613Z,49.58
2017-02-26T04:10:00.959Z,49.59
2017-02-26T04:11:48.298Z,49.6
2017-02-26T04:13:45.638Z,49.63
2017-02-26T04:15:53.078Z,49.67
2017-02-26T04:17:50.348Z,49.69
2017-02-26T04:19:42.737Z,49.69
2017-02-26T04:21:45.117Z,49.69
2017-02-26T04:23:37.433Z,49.71
2017-02-26T04:25:34.658Z,49.73
2017-02-26T04:27:22.120Z,49.73
2017-02-26T04:29:24.607Z,49.75
2017-02-26T04:31:26.998Z,49.75
2017-02-26T04:33:29.178Z,49.71
2017-02-26T04:35:22.806Z,49.7
2017-02-26T04:37:25.080Z,49.71
2017-02-26T04:39:27.837Z,49.74
2017-02-26T04:41:40.578Z,49.79
2017-02-26T04:43:38.013Z,49.83
2017-02-26T04:45:25.389Z,49.89
2017-02-26T04:47:22.828Z,49.95
2017-02-26T04:49:30.227Z,50
2017-02-26T04:51:42.618Z,50.06
2017-02-26T04:53:39.919Z,50.11
2017-02-26T04:55:27.338Z,50.14
2017-02-26T04:57:24.558Z,50.15
2017-02-26T04:59:31.772Z,50.18
2017-02-26T05:01:29.132Z,50.2
2017-02-26T05:03:31.362Z,50.2
2017-02-26T05:05:33.832Z,50.23
2017-02-26T05:07:31.224Z,50.31
2017-02-26T05:09:33.502Z,50.36
2017-02-26T05:11:30.736Z,50.38
2017-02-26T05:13:23.109Z,50.41
2017-02-26T05:15:15.374Z,50.42
2017-02-26T05:17:07.570Z,50.43
2017-02-26T05:19:09.838Z,50.44
2017-02-26T05:21:07.169Z,50.41
2017-02-26T05:23:04.501Z,50.42
2017-02-26T05:25:01.783Z,50.42
2017-02-26T05:27:09.121Z,50.48
2017-02-26T05:29:11.334Z,50.51
2017-02-26T05:31:18.637Z,50.49
2017-02-26T05:33:25.813Z,50.49
2017-02-26T05:35:23.786Z,50.49
2017-02-26T05:37:30.955Z,50.54
2017-02-26T05:39:33.336Z,50.57
2017-02-26T05:41:36.013Z,50.54
2017-02-26T05:43:18.299Z,50.5
2017-02-26T05:45:20.477Z,50.48
2017-02-26T05:47:22.875Z,50.46
2017-02-26T05:49:30.249Z,50.5
2017-02-26T05:51:27.740Z,50.52
2017-02-26T05:53:39.972Z,50.53
2017-02-26T05:55:37.340Z,50.52
2017-02-26T05:57:39.696Z,50.52
2017-02-26T05:59:47.068Z,50.51
2017-02-26T06:01:44.317Z,50.47
2017-02-26T06:03:41.752Z,50.43
2017-02-26T06:05:39.100Z,50.41
2017-02-26T06:07:31.377Z,50.41
2017-02-26T06:09:28.785Z,50.4
2017-02-26T06:11:36.081Z,50.37
2017-02-26T06:13:33.540Z,50.38
2017-02-26T06:15:26.142Z,50.36
2017-02-26T06:17:28.801Z,50.34
2017-02-26T06:19:21.224Z,50.31
2017-02-26T06:21:23.646Z,50.31
2017-02-26T06:23:30.872Z,50.26
2017-02-26T06:25:33.192Z,50.22
2017-02-26T06:27:35.656Z,50.19
2017-02-26T06:29:38.059Z,50.15
2017-02-26T06:31:30.461Z,50.17
2017-02-26T06:33:32.825Z,50.17
2017-02-26T06:35:40.227Z,50.16
2017-02-26T06:37:37.795Z,50.16
2017-02-26T06:39:30.041Z,50.12
2017-02-26T06:41:27.522Z,50.08
2017-02-26T06:43:24.815Z,50.01
2017-02-26T06:45:32.067Z,49.9
2017-02-26T06:47:34.489Z,49.78
2017-02-26T06:49:36.935Z,49.67
2017-02-26T06:51:39.601Z,49.61
2017-02-26T06:53:46.902Z,49.57
2017-02-26T06:55:45.378Z,49.58
2017-02-26T06:57:52.637Z,49.57
2017-02-26T06:59:45.113Z,49.52
2017-02-26T07:01:48.668Z,49.46
2017-02-26T07:03:48.631Z,49.41
2017-02-26T07:05:52.756Z,49.39
2017-02-26T07:07:55.020Z,49.25
2017-02-26T07:09:44.060Z,49.1
2017-02-26T07:11:52.664Z,49.04
2017-02-26T07:13:49.952Z,48.95
2017-02-26T07:15:52.251Z,48.85
2017-02-26T07:17:49.617Z,48.7
2017-02-26T07:19:46.945Z,48.58
2017-02-26T07:21:54.458Z,48.43
2017-02-26T07:23:56.860Z,48.29
2017-02-26T07:26:04.350Z,48.19
2017-02-26T07:28:02.184Z,48.11
2017-02-26T07:30:09.510Z,48.04
2017-02-26T07:32:21.781Z,47.9
2017-02-26T07:34:14.284Z,47.75
2017-02-26T07:36:16.520Z,47.59
2017-02-26T07:38:27.111Z,47.43
2017-02-26T07:40:19.462Z,47.33
2017-02-26T07:42:16.709Z,47.26
2017-02-26T07:44:14.167Z,47.2
2017-02-26T07:46:21.344Z,47.19
2017-02-26T07:48:13.712Z,47.15
2017-02-26T07:50:16.153Z,47.05
2017-02-26T07:52:13.463Z,46.9
2017-02-26T07:54:05.846Z,46.79
2017-02-26T07:55:43.400Z,46.72
2017-02-26T07:57:40.696Z,46.66
2017-02-26T07:59:38.005Z,46.65
2017-02-26T08:01:35.564Z,46.65
2017-02-26T08:03:23.044Z,46.62
2017-02-26T08:05:30.617Z,46.45
2017-02-26T08:07:27.944Z,46.31
2017-02-26T08:09:25.550Z,46.22
2017-02-26T08:11:27.858Z,46.18
2017-02-26T08:13:35.230Z,46.15
2017-02-26T08:15:30.741Z,46.11
2017-02-26T08:17:37.902Z,46
2017-02-26T08:19:41.672Z,45.78
2017-02-26T08:21:44.686Z,45.5
2017-02-26T08:23:52.022Z,45.27
2017-02-26T08:25:59.268Z,45.08
2017-02-26T08:27:51.699Z,44.96
2017-02-26T08:29:55.379Z,44.83
2017-02-26T08:31:53.486Z,44.7
2017-02-26T08:33:55.720Z,44.52
2017-02-26T08:35:53.261Z,44.38
2017-02-26T08:37:50.482Z,44.24
2017-02-26T08:40:02.825Z,44.12
2017-02-26T08:41:45.302Z,44.05
2017-02-26T08:43:38.891Z,43.98
2017-02-26T08:45:26.299Z,43.87
2017-02-26T08:47:33.604Z,43.81
2017-02-26T08:49:40.839Z,43.78
2017-02-26T08:51:48.305Z,43.8
2017-02-26T08:53:50.567Z,43.9
2017-02-26T08:56:13.038Z,44.17
2017-02-26T08:59:00.576Z,44.46
2017-02-26T09:01:48.964Z,44.55
2017-02-26T09:04:41.247Z,44.44
2017-02-26T09:07:31.931Z,44.24
2017-02-26T09:10:26.308Z,43.99
2017-02-26T09:13:07.373Z,43.73
2017-02-26T09:16:00.453Z,43.69
2017-02-26T09:18:51.660Z,43.65
2017-02-26T09:21:38.086Z,43.5
2017-02-26T09:24:20.396Z,43.65
2017-02-26T09:27:08.578Z,43.63
2017-02-26T09:29:58.551Z,41.88
2017-02-26T09:32:46.997Z,41.63
2017-02-26T09:35:28.107Z,41.81
2017-02-26T09:38:12.262Z,39.62
2017-02-26T09:40:59.817Z,38.16
2017-02-26T09:43:54.315Z,39.51
2017-02-26T09:46:36.176Z,40.36
2017-02-26T09:48:33.582Z,39.89
2017-02-26T09:50:25.987Z,38.91
2017-02-26T09:52:28.156Z,38.91
2017-02-26T09:54:20.730Z,39.15
2017-02-26T09:56:23.400Z,39.48
2017-02-26T09:58:20.796Z,40.1
2017-02-26T10:00:23.353Z,40.25
2017-02-26T10:02:25.903Z,40.4
2017-02-26T10:04:23.303Z,38.97
2017-02-26T10:06:30.771Z,37.25
2017-02-26T10:08:38.369Z,35.73
2017-02-26T10:10:50.783Z,34.26
2017-02-26T10:12:58.039Z,36.08
2017-02-26T10:15:00.335Z,37.28
2017-02-26T10:17:07.548Z,37.59
2017-02-26T10:19:00.136Z,36.82
2017-02-26T10:21:07.482Z,34.61
2017-02-26T10:23:14.868Z,33.86
2017-02-26T10:25:22.388Z,33.69
2017-02-26T10:27:19.776Z,34.87
2017-02-26T10:29:22.356Z,33.67
2017-02-26T10:31:19.720Z,32.71
2017-02-26T10:33:22.010Z,33.1
2017-02-26T10:35:19.320Z,33.34
2017-02-26T10:37:21.708Z,33.18
2017-02-26T10:39:25.150Z,31.63
2017-02-26T10:41:17.541Z,30.61
2017-02-26T10:43:04.940Z,29.34
2017-02-26T10:45:02.391Z,28.58
2017-02-26T10:46:59.802Z,29.49
2017-02-26T10:49:02.193Z,30.75
2017-02-26T10:50:49.656Z,32.5
2017-02-26T10:52:42.002Z,34.25
2017-02-26T10:54:44.415Z,34.5
2017-02-26T10:56:45.033Z,35.17
2017-02-26T10:58:42.339Z,34.76
2017-02-26T11:00:49.681Z,34.53
2017-02-26T11:02:47.403Z,34.92
2017-02-26T11:04:49.750Z,34.46
2017-02-26T11:06:47.083Z,33.35
2017-02-26T11:08:49.426Z,32.96
2017-02-26T11:10:57.369Z,32.01
2017-02-26T11:12:54.916Z,31.61
2017-02-26T11:15:02.522Z,31.88
2017-02-26T11:17:09.938Z,33.38
2017-02-26T11:19:17.617Z,34.69
2017-02-26T11:21:29.842Z,35.6
2017-02-26T11:23:37.211Z,35.49
2017-02-26T11:25:39.538Z,34.75
2017-02-26T11:27:47.044Z,34.57
2017-02-26T11:29:50.407Z,35.31
2017-02-26T11:31:47.728Z,35.77
2017-02-26T11:33:45.384Z,35.74
2017-02-26T11:35:47.954Z,34.53
2017-02-26T11:37:50.605Z,33.35
2017-02-26T11:39:53.376Z,33.1
2017-02-26T11:43:48.144Z,30.86
2017-02-26T11:46:00.464Z,29.71
2017-02-26T11:47:57.997Z,29.65
2017-02-26T11:50:00.425Z,30.88
2017-02-26T11:52:07.900Z,31.87
2017-02-26T11:54:05.292Z,33.12
2017-02-26T11:56:10.835Z,33.74
2017-02-26T11:58:13.116Z,33.91
2017-02-26T12:00:10.452Z,33.88
2017-02-26T12:02:18.175Z,34.77
2017-02-26T12:04:25.932Z,35.32
2017-02-26T12:06:28.495Z,35.85
2017-02-26T12:08:25.986Z,36.17
2017-02-26T12:10:23.385Z,36.62
2017-02-26T12:12:15.863Z,36.87
2017-02-26T12:14:08.182Z,37.01
2017-02-26T12:16:10.489Z,37.45
2017-02-26T12:18:12.814Z,38.01
2017-02-26T12:20:05.226Z,38.59
2017-02-26T12:22:12.646Z,39.05
2017-02-26T12:24:10.003Z,39.48
2017-02-26T12:26:12.412Z,39.84
2017-02-26T12:28:14.786Z,40.26
2017-02-26T12:30:07.610Z,40.75
2017-02-26T12:31:59.954Z,41.12
2017-02-26T12:33:57.522Z,41.45
2017-02-26T12:36:34.929Z,41.63
2017-02-26T12:38:37.243Z,41.54
2017-02-26T12:40:39.897Z,41.36
2017-02-26T12:42:32.687Z,41.49
2017-02-26T12:44:40.045Z,41.8
2017-02-26T12:46:47.603Z,42.1
2017-02-26T12:49:00.057Z,42.31
2017-02-26T12:50:57.843Z,42.42
2017-02-26T12:52:50.212Z,42.44
2017-02-26T12:54:42.659Z,42.53
2017-02-26T12:56:42.546Z,42.48
2017-02-26T12:58:44.940Z,42.38
2017-02-26T13:00:47.394Z,42.27
2017-02-26T13:02:44.874Z,42.16
2017-02-26T13:04:47.275Z,42.02
2017-02-26T13:06:49.657Z,41.72
2017-02-26T13:08:51.974Z,41.36
2017-02-26T13:10:49.360Z,41.03
2017-02-26T13:12:56.832Z,40.71
2017-02-26T13:14:59.682Z,40.39
2017-02-26T13:17:02.124Z,40.31
2017-02-26T13:19:01.880Z,40.16
2017-02-26T13:21:04.592Z,40.27
2017-02-26T13:23:06.999Z,40.2
2017-02-26T13:25:09.364Z,40.07
2017-02-26T13:27:01.697Z,40.08
2017-02-26T13:29:09.147Z,40.11
2017-02-26T13:31:11.606Z,40.21
2017-02-26T13:33:04.076Z,40.29
2017-02-26T13:35:06.777Z,40.34
2017-02-26T13:37:04.075Z,40.61
2017-02-26T13:39:06.481Z,41
2017-02-26T13:41:09.045Z,41.34
2017-02-26T13:43:11.381Z,41.73
2017-02-26T13:45:09.100Z,42.01
2017-02-26T13:47:11.858Z,42.26
2017-02-26T13:49:18.034Z,42.43
2017-02-26T13:51:10.701Z,42.59
2017-02-26T13:53:18.230Z,42.66
2017-02-26T13:55:25.597Z,42.72
2017-02-26T13:57:23.114Z,42.78
2017-02-26T13:59:25.602Z,42.81
2017-02-26T14:01:23.319Z,42.88
2017-02-26T14:03:25.848Z,42.89
2017-02-26T14:05:18.304Z,43.03
2017-02-26T14:07:15.802Z,43.24
2017-02-26T14:09:18.130Z,43.43
2017-02-26T14:11:20.320Z,43.69
2017-02-26T14:13:12.668Z,43.83
2017-02-26T14:15:10.320Z,44.02
2017-02-26T14:17:02.770Z,44.25
2017-02-26T14:18:55.265Z,44.56
2017-02-26T14:21:02.653Z,44.75
2017-02-26T14:23:00.105Z,44.92
2017-02-26T14:25:02.538Z,45.15
2017-02-26T14:27:00.026Z,45.25
2017-02-26T14:28:52.379Z,45.31
2017-02-26T14:30:54.839Z,45.36
2017-02-26T14:33:02.153Z,45.47
2017-02-26T14:35:04.482Z,45.5
2017-02-26T14:37:11.915Z,45.63
2017-02-26T14:39:14.453Z,45.75
2017-02-26T14:41:11.744Z,45.91
2017-02-26T14:43:04.116Z,45.98
2017-02-26T14:45:01.539Z,46.1
2017-02-26T14:47:03.928Z,46.2
2017-02-26T14:49:16.811Z,46.24
2017-02-26T14:51:24.262Z,46.23
2017-02-26T14:53:26.615Z,46.25
2017-02-26T14:55:28.925Z,46.4
2017-02-26T14:57:31.429Z,46.59
2017-02-26T14:59:33.891Z,46.74
2017-02-26T15:01:36.154Z,46.83
2017-02-26T15:03:33.514Z,46.91
2017-02-26T15:05:36.023Z,46.9
2017-02-26T15:07:33.497Z,46.9
2017-02-26T15:09:37.284Z,46.96
2017-02-26T15:11:44.718Z,47.03
2017-02-26T15:13:47.002Z,47.11
2017-02-26T15:15:54.402Z,47.2
2017-02-26T15:18:02.183Z,47.25
2017-02-26T15:20:09.553Z,47.25
2017-02-26T15:21:56.972Z,47.32
2017-02-26T15:24:04.375Z,47.37
2017-02-26T15:26:01.856Z,47.42
2017-02-26T15:27:59.267Z,47.43
2017-02-26T15:30:01.513Z,47.42
2017-02-26T15:32:03.872Z,47.38
2017-02-26T15:33:59.742Z,47.3
2017-02-26T15:36:12.347Z,47.28
2017-02-26T15:38:24.764Z,47.27
2017-02-26T15:40:22.443Z,47.25
2017-02-26T15:42:29.848Z,47.2
2017-02-26T15:44:32.460Z,47.22
2017-02-26T15:46:40.088Z,47.26
2017-02-26T15:48:47.523Z,47.34
2017-02-26T15:50:45.030Z,47.42
2017-02-26T15:52:47.391Z,47.52
2017-02-26T15:54:54.819Z,47.66
2017-02-26T15:56:57.212Z,47.7
2017-02-26T15:59:04.645Z,47.75
2017-02-26T16:01:06.959Z,47.82
2017-02-26T16:03:09.248Z,47.91
2017-02-26T16:05:01.599Z,47.99
2017-02-26T16:06:53.995Z,48.09
2017-02-26T16:08:56.389Z,48.21
2017-02-26T16:10:48.691Z,48.33
2017-02-26T16:12:51.074Z,48.47
2017-02-26T16:14:48.560Z,48.58
2017-02-26T16:16:41.180Z,48.66
2017-02-26T16:18:38.593Z,48.73
2017-02-26T16:20:35.981Z,48.81
2017-02-26T16:22:38.360Z,48.88
2017-02-26T16:24:40.758Z,48.91
2017-02-26T16:26:33.085Z,48.91
2017-02-26T16:28:30.452Z,48.97
2017-02-26T16:30:28.034Z,49.07
2017-02-26T16:32:25.429Z,49.17
2017-02-26T16:34:17.720Z,49.29
2017-02-26T16:36:15.086Z,49.45
2017-02-26T16:38:17.495Z,49.6
2017-02-26T16:40:19.943Z,49.71
2017-02-26T16:42:15.623Z,49.79
2017-02-26T16:44:22.942Z,49.86
2017-02-26T16:46:35.547Z,49.89
2017-02-26T16:48:33.200Z,49.93
2017-02-26T16:50:40.437Z,50
2017-02-26T16:52:42.983Z,50.03
2017-02-26T16:54:40.448Z,50.05
2017-02-26T16:56:32.905Z,50.1
2017-02-26T16:58:30.424Z,50.15
2017-02-26T17:00:42.637Z,50.2
2017-02-26T17:02:30.169Z,50.28
2017-02-26T17:04:32.605Z,50.36
2017-02-26T17:06:20.057Z,50.42
2017-02-26T17:08:27.286Z,50.51
2017-02-26T17:10:34.541Z,50.59
2017-02-26T17:12:31.890Z,50.68
2017-02-26T17:14:34.483Z,50.75
2017-02-26T17:16:36.892Z,50.81
2017-02-26T17:18:44.174Z,50.84
2017-02-26T17:20:41.592Z,50.86
2017-02-26T17:22:34.186Z,50.89
2017-02-26T17:24:26.472Z,50.91
2017-02-26T17:26:18.763Z,50.95
2017-02-26T17:28:21.024Z,50.96
2017-02-26T17:30:23.247Z,50.97
2017-02-26T17:32:20.551Z,50.94
2017-02-26T17:34:12.936Z,50.94
2017-02-26T17:36:05.222Z,50.99
2017-02-26T17:37:57.495Z,51
2017-02-26T17:39:59.749Z,51.02
2017-02-26T17:41:57.086Z,51.04
2017-02-26T17:43:59.326Z,51.03
2017-02-26T17:46:06.680Z,51.06
2017-02-26T17:48:08.944Z,51.07
2017-02-26T17:50:13.045Z,51.05
2017-02-26T17:52:06.153Z,51.05
2017-02-26T17:54:08.427Z,51.07
2017-02-26T17:56:05.858Z,51.04
2017-02-26T17:57:53.391Z,50.98
2017-02-26T17:59:50.786Z,51
2017-02-26T18:01:58.071Z,50.97
2017-02-26T18:04:00.422Z,50.95
2017-02-26T18:06:02.662Z,50.92
2017-02-26T18:07:54.998Z,50.87
2017-02-26T18:09:37.432Z,50.86
2017-02-26T18:11:39.615Z,50.86
2017-02-26T18:13:26.950Z,50.88
2017-02-26T18:15:19.557Z,50.88
2017-02-26T18:17:21.914Z,50.89
2017-02-26T18:19:24.236Z,50.89
2017-02-26T18:21:31.648Z,50.92
2017-02-26T18:23:33.958Z,50.88
2017-02-26T18:25:41.482Z,50.85
2017-02-26T18:27:39.207Z,50.88
2017-02-26T18:29:51.607Z,50.82
2017-02-26T18:31:53.911Z,50.81
2017-02-26T18:33:54.604Z,50.78
2017-02-26T18:36:01.830Z,50.74
2017-02-26T18:37:59.149Z,50.72
2017-02-26T18:40:01.409Z,50.69
2017-02-26T18:42:08.801Z,50.67
2017-02-26T18:44:06.122Z,50.64
2017-02-26T18:46:03.464Z,50.63
2017-02-26T18:48:00.695Z,50.6
2017-02-26T18:49:53.323Z,50.58
2017-02-26T18:51:45.902Z,50.56
2017-02-26T18:53:53.128Z,50.53
2017-02-26T18:56:00.352Z,50.56
2017-02-26T18:58:02.695Z,50.58
2017-02-26T19:00:05.205Z,50.51
2017-02-26T19:02:12.474Z,50.38
2017-02-26T19:04:09.933Z,50.28
2017-02-26T19:06:07.242Z,50.24
2017-02-26T19:08:14.498Z,50.2
2017-02-26T19:10:01.947Z,50.16
2017-02-26T19:12:09.302Z,50.13
2017-02-26T19:14:01.839Z,50.09
2017-02-26T19:15:59.276Z,50.1
2017-02-26T19:18:01.665Z,50.12
2017-02-26T19:19:53.926Z,50.15
2017-02-26T19:22:06.152Z,50.18
2017-02-26T19:24:06.855Z,50.23
2017-02-26T19:26:14.139Z,50.2
2017-02-26T19:28:21.408Z,50.13
2017-02-26T19:30:18.697Z,50.01
2017-02-26T19:32:16.262Z,49.89
2017-02-26T19:34:08.710Z,49.87
2017-02-26T19:36:05.986Z,49.88
2017-02-26T19:38:03.310Z,49.81
2017-02-26T19:40:05.617Z,49.74
2017-02-26T19:42:13.407Z,49.73
2017-02-26T19:44:25.650Z,49.74
2017-02-26T19:46:33.406Z,49.8
2017-02-26T19:48:35.937Z,49.82
2017-02-26T19:50:43.246Z,49.85
2017-02-26T19:52:35.778Z,49.87
2017-02-26T19:54:48.050Z,49.9
2017-02-26T19:56:45.501Z,49.91
2017-02-26T19:58:57.759Z,49.91
2017-02-26T20:01:00.112Z,49.84
2017-02-26T20:02:47.514Z,49.8
2017-02-26T20:04:49.801Z,49.81
2017-02-26T20:07:02.272Z,49.83
2017-02-26T20:08:54.662Z,49.84
2017-02-26T20:10:51.953Z,49.88
2017-02-26T20:12:54.382Z,49.87
2017-02-26T20:14:46.871Z,49.92
2017-02-26T20:16:49.127Z,49.82
2017-02-26T20:18:51.424Z,49.81
2017-02-26T20:20:48.752Z,49.76
2017-02-26T20:22:51.225Z,49.69
2017-02-26T20:24:43.750Z,49.64
2017-02-26T20:26:41.446Z,49.66
2017-02-26T20:28:38.999Z,49.58
2017-02-26T20:30:51.365Z,49.57
2017-02-26T20:32:48.771Z,49.55
2017-02-26T20:34:41.164Z,49.58
2017-02-26T20:36:38.538Z,49.6
2017-02-26T20:38:40.860Z,49.63
2017-02-26T20:40:33.272Z,49.68
2017-02-26T20:42:35.843Z,49.68
2017-02-26T20:44:33.150Z,49.63
2017-02-26T20:46:45.410Z,49.63
2017-02-26T20:48:42.868Z,49.63
2017-02-26T20:50:45.134Z,49.67
2017-02-26T20:52:47.673Z,49.7
2017-02-26T20:54:44.897Z,49.75
2017-02-26T20:56:52.280Z,49.83
2017-02-26T20:58:59.608Z,49.79
2017-02-26T21:00:47.126Z,49.77
2017-02-26T21:02:54.615Z,49.8
2017-02-26T21:04:56.991Z,49.79
2017-02-26T21:07:09.371Z,49.79
2017-02-26T21:09:06.655Z,49.78
2017-02-26T21:10:54.140Z,49.69
2017-02-26T21:12:56.623Z,49.65
2017-02-26T21:15:03.943Z,49.58
2017-02-26T21:17:16.127Z,49.43
2017-02-26T21:19:18.423Z,49.4
2017-02-26T21:21:25.846Z,49.4
2017-02-26T21:23:33.138Z,49.33
2017-02-26T21:25:25.441Z,49.29
2017-02-26T21:27:27.734Z,49.29
2017-02-26T21:29:30.166Z,49.32
2017-02-26T21:31:37.682Z,49.35
2017-02-26T21:33:34.986Z,49.42
2017-02-26T21:35:27.328Z,49.51
2017-02-26T21:37:19.879Z,49.57
2017-02-26T21:39:12.213Z,49.55
2017-02-26T21:41:04.743Z,49.57
2017-02-26T21:43:10.495Z,49.6
2017-02-26T21:45:07.759Z,49.61
2017-02-26T21:47:15.230Z,49.67
2017-02-26T21:49:12.587Z,49.64
2017-02-26T21:51:09.844Z,49.62
2017-02-26T21:53:13.418Z,49.65
2017-02-26T21:55:16.395Z,49.6
2017-02-26T21:57:13.825Z,49.55
2017-02-26T21:59:16.290Z,49.52
2017-02-26T22:01:08.691Z,49.49
2017-02-26T22:03:11.075Z,49.44
2017-02-26T22:05:10.409Z,49.42
2017-02-26T22:07:22.862Z,49.33
2017-02-26T22:09:15.396Z,49.28
2017-02-26T22:11:27.667Z,49.29
2017-02-26T22:13:40.041Z,49.31
2017-02-26T22:15:47.561Z,49.34
2017-02-26T22:17:51.888Z,49.37
2017-02-26T22:19:44.270Z,49.39
2017-02-26T22:21:41.559Z,49.43
2017-02-26T22:23:48.804Z,49.45
2017-02-26T22:25:36.348Z,49.47
2017-02-26T22:27:28.664Z,49.47
2017-02-26T22:29:30.956Z,49.47
2017-02-26T22:31:43.205Z,49.49
2017-02-26T22:33:50.449Z,49.51
2017-02-26T22:35:57.606Z,49.53
2017-02-26T22:38:04.874Z,49.56
2017-02-26T22:40:07.126Z,49.57
2017-02-26T22:42:14.310Z,49.56
2017-02-26T22:44:11.695Z,49.52
2017-02-26T22:46:09.329Z,49.48
2017-02-26T22:48:06.899Z,49.47
2017-02-26T22:50:09.327Z,49.47
2017-02-26T22:52:12.044Z,49.47
2017-02-26T22:54:09.991Z,49.53
2017-02-26T22:56:18.409Z,49.51
2017-02-26T22:58:25.661Z,49.53
2017-02-26T23:00:33.630Z,49.57
2017-02-26T23:02:46.159Z,49.6
2017-02-26T23:04:48.512Z,49.6
2017-02-26T23:06:40.810Z,49.55
2017-02-26T23:08:33.028Z,49.53
2017-02-26T23:10:35.331Z,49.49
2017-02-26T23:12:42.670Z,49.45
2017-02-26T23:14:39.862Z,49.42
2017-02-26T23:16:37.215Z,49.37
2017-02-26T23:18:34.590Z,49.33
2017-02-26T23:20:22.028Z,49.34
2017-02-26T23:22:14.359Z,49.23
2017-02-26T23:24:21.705Z,49.15
2017-02-26T23:26:24.174Z,49.14
2017-02-26T23:28:31.473Z,49.22
2017-02-26T23:30:43.957Z,49.26
2017-02-26T23:32:41.351Z,49.27
2017-02-26T23:34:43.776Z,49.31
2017-02-26T23:36:41.217Z,49.4
2017-02-26T23:38:43.542Z,49.47
2017-02-26T23:40:45.878Z,49.49
2017-02-26T23:42:33.429Z,49.46
2017-02-26T23:44:35.639Z,49.39
2017-02-26T23:46:37.785Z,49.29
2017-02-26T23:48:40.049Z,49.25
2017-02-26T23:50:42.424Z,49.18
2017-02-26T23:52:44.844Z,49.11
2017-02-26T23:54:47.138Z,49.11
2017-02-26T23:56:54.304Z,49.13
2017-02-26T23:58:46.609Z,49.16
